createdAt,value
2023-04-20T00:01:11.638Z,16.61
2023-04-20T00:03:38.981Z,16.68
2023-04-20T00:06:06.439Z,16.66
2023-04-20T00:08:33.698Z,16.68
2023-04-20T00:11:02.023Z,16.72
2023-04-20T00:13:29.081Z,16.66
2023-04-20T00:15:55.966Z,16.61
2023-04-20T00:18:23.009Z,16.59
2023-04-20T00:20:50.009Z,16.66
2023-04-20T00:23:16.870Z,16.62
2023-04-20T00:25:43.697Z,16.58
2023-04-20T00:28:12.115Z,16.48
2023-04-20T00:30:41.081Z,16.51
2023-04-20T00:33:08.051Z,16.21
2023-04-20T00:35:35.209Z,16.38
2023-04-20T00:38:02.297Z,16.48
2023-04-20T00:40:30.095Z,16.45
2023-04-20T00:42:56.931Z,16.42
2023-04-20T00:45:25.739Z,16.34
2023-04-20T00:47:52.885Z,16.17
2023-04-20T00:50:21.326Z,16.08
2023-04-20T00:52:48.369Z,15.90
2023-04-20T00:55:15.408Z,15.93
2023-04-20T00:57:44.233Z,15.89
2023-04-20T01:00:15.880Z,15.97
2023-04-20T01:02:44.588Z,16.04
2023-04-20T01:05:18.055Z,16.04
2023-04-20T01:07:45.115Z,16.00
2023-04-20T01:10:12.453Z,16.01
2023-04-20T01:12:39.918Z,16.02
2023-04-20T01:15:09.976Z,16.10
2023-04-20T01:17:38.078Z,16.15
2023-04-20T01:20:13.057Z,16.02
2023-04-20T01:22:47.691Z,16.11
2023-04-20T01:25:16.075Z,16.11
2023-04-20T01:27:43.241Z,16.11
2023-04-20T01:30:12.118Z,16.08
2023-04-20T01:32:40.660Z,16.00
2023-04-20T01:35:09.214Z,15.97
2023-04-20T01:37:38.735Z,15.98
2023-04-20T01:40:09.800Z,15.94
2023-04-20T01:42:37.838Z,15.87
2023-04-20T01:45:06.485Z,15.86
2023-04-20T01:47:34.711Z,15.93
2023-04-20T01:50:01.829Z,15.90
2023-04-20T01:52:28.861Z,15.93
2023-04-20T01:54:55.880Z,15.80
2023-04-20T01:57:26.318Z,15.71
2023-04-20T01:59:53.399Z,15.69
2023-04-20T02:02:23.316Z,15.73
2023-04-20T02:05:17.260Z,15.76
2023-04-20T02:07:48.777Z,15.67
2023-04-20T02:10:23.208Z,15.50
2023-04-20T02:12:58.180Z,15.57
2023-04-20T02:15:34.403Z,15.53
2023-04-20T02:18:07.495Z,15.56
2023-04-20T02:20:40.278Z,15.67
2023-04-20T02:23:17.328Z,15.66
2023-04-20T02:25:47.343Z,15.66
2023-04-20T02:28:20.853Z,15.70
2023-04-20T02:30:52.947Z,15.60
2023-04-20T02:33:23.176Z,15.63
2023-04-20T02:35:58.257Z,15.54
2023-04-20T02:38:26.129Z,15.57
2023-04-20T02:41:07.280Z,15.56
2023-04-20T02:43:39.736Z,15.57
2023-04-20T02:46:11.411Z,15.60
2023-04-20T02:48:42.701Z,15.56
2023-04-20T02:51:11.583Z,15.50
2023-04-20T02:53:43.108Z,15.47
2023-04-20T02:56:20.600Z,15.47
2023-04-20T02:58:55.788Z,15.44
2023-04-20T03:01:33.961Z,15.29
2023-04-20T03:04:08.946Z,15.39
2023-04-20T03:06:45.155Z,15.38
2023-04-20T03:09:17.872Z,15.43
2023-04-20T03:11:59.854Z,15.40
2023-04-20T03:14:48.856Z,15.39
2023-04-20T03:20:11.472Z,15.36
2023-04-20T03:22:38.886Z,15.44
2023-04-20T03:25:09.013Z,15.50
2023-04-20T03:27:53.578Z,15.49
2023-04-20T03:30:22.646Z,15.50
2023-04-20T03:35:47.460Z,15.47
2023-04-20T03:38:15.542Z,15.44
2023-04-20T03:40:43.436Z,15.44
2023-04-20T03:43:16.697Z,15.36
2023-04-20T03:45:45.379Z,15.38
2023-04-20T03:48:12.619Z,15.36
2023-04-20T03:50:58.176Z,15.33
2023-04-20T03:53:39.532Z,15.35
2023-04-20T03:56:12.345Z,15.38
2023-04-20T03:58:39.585Z,15.32
2023-04-20T04:01:14.762Z,15.26
2023-04-20T04:03:54.140Z,15.29
2023-04-20T04:06:21.805Z,15.35
2023-04-20T04:08:49.262Z,15.39
2023-04-20T04:11:16.312Z,15.47
2023-04-20T04:13:43.403Z,15.44
2023-04-20T04:16:10.623Z,15.47
2023-04-20T04:18:43.573Z,15.52
2023-04-20T04:21:11.821Z,15.50
2023-04-20T04:23:41.819Z,15.44
2023-04-20T04:26:29.415Z,15.44
2023-04-20T04:29:00.206Z,15.42
2023-04-20T04:31:27.257Z,15.42
2023-04-20T04:34:02.146Z,15.44
2023-04-20T04:36:40.585Z,15.40
2023-04-20T04:39:11.753Z,15.42
2023-04-20T04:41:41.536Z,15.43
2023-04-20T04:44:22.395Z,15.42
2023-04-20T04:46:49.617Z,15.38
2023-04-20T04:49:20.240Z,15.43
2023-04-20T04:51:50.884Z,15.39
2023-04-20T04:54:18.153Z,15.36
2023-04-20T04:56:52.114Z,15.42
2023-04-20T04:59:23.001Z,15.42
2023-04-20T05:01:51.988Z,15.39
2023-04-20T05:04:21.275Z,15.40
2023-04-20T05:06:55.778Z,15.39
2023-04-20T05:09:22.813Z,15.36
2023-04-20T05:11:49.970Z,15.38
2023-04-20T05:14:17.031Z,15.33
2023-04-20T05:16:44.159Z,15.36
2023-04-20T05:19:11.189Z,15.36
2023-04-20T05:21:42.082Z,15.40
2023-04-20T05:24:10.556Z,15.30
2023-04-20T05:26:39.591Z,15.32
2023-04-20T05:29:14.697Z,15.40
2023-04-20T05:31:41.878Z,15.42
2023-04-20T05:34:10.652Z,15.38
2023-04-20T05:36:40.709Z,15.33
2023-04-20T05:39:08.167Z,15.30
2023-04-20T05:41:55.913Z,15.28
2023-04-20T05:44:26.841Z,15.28
2023-04-20T05:46:54.634Z,15.29
2023-04-20T05:49:22.031Z,15.39
2023-04-20T05:51:53.819Z,15.39
2023-04-20T05:54:21.070Z,15.43
2023-04-20T05:56:48.171Z,15.43
2023-04-20T05:59:16.369Z,15.49
2023-04-20T06:01:43.401Z,15.54
2023-04-20T06:04:10.576Z,15.54
2023-04-20T06:06:38.265Z,15.59
2023-04-20T06:09:06.984Z,15.63
2023-04-20T06:11:34.204Z,15.52
2023-04-20T06:14:01.680Z,15.56
2023-04-20T06:16:29.016Z,15.59
2023-04-20T06:18:56.038Z,15.61
2023-04-20T06:21:23.805Z,15.66
2023-04-20T06:23:51.343Z,15.69
2023-04-20T06:26:21.176Z,15.70
2023-04-20T06:28:49.115Z,15.69
2023-04-20T06:31:16.280Z,15.71
2023-04-20T06:33:43.655Z,15.76
2023-04-20T06:36:10.807Z,15.77
2023-04-20T06:38:37.981Z,15.83
2023-04-20T06:41:05.444Z,15.91
2023-04-20T06:43:33.789Z,15.97
2023-04-20T06:46:00.780Z,15.97
2023-04-20T06:48:32.705Z,16.07
2023-04-20T06:51:00.790Z,16.11
2023-04-20T06:53:33.894Z,16.18
2023-04-20T06:56:01.393Z,16.22
2023-04-20T06:58:28.310Z,16.15
2023-04-20T07:00:57.650Z,16.08
2023-04-20T07:03:29.577Z,16.04
2023-04-20T07:06:02.337Z,15.97
2023-04-20T07:08:29.687Z,15.96
2023-04-20T07:10:56.805Z,15.94
2023-04-20T07:13:23.838Z,15.90
2023-04-20T07:15:51.704Z,15.90
2023-04-20T07:18:54.636Z,15.91
2023-04-20T07:21:22.362Z,15.81
2023-04-20T07:23:50.970Z,15.73
2023-04-20T07:26:18.300Z,15.79
2023-04-20T07:28:47.784Z,15.81
2023-04-20T07:31:14.906Z,15.89
2023-04-20T07:33:46.415Z,15.93
2023-04-20T07:36:13.700Z,15.91
2023-04-20T07:38:44.080Z,15.96
2023-04-20T07:41:11.702Z,16.01
2023-04-20T07:43:39.177Z,16.02
2023-04-20T07:46:06.548Z,16.05
2023-04-20T07:48:35.418Z,15.91
2023-04-20T07:51:04.339Z,15.90
2023-04-20T07:53:31.214Z,15.91
2023-04-20T07:55:58.175Z,15.90
2023-04-20T07:58:25.154Z,15.91
2023-04-20T08:00:52.408Z,15.79
2023-04-20T08:03:19.723Z,15.71
2023-04-20T08:05:47.395Z,15.80
2023-04-20T08:08:16.320Z,15.83
2023-04-20T08:10:43.412Z,15.80
2023-04-20T08:13:10.365Z,15.76
2023-04-20T08:15:37.673Z,15.81
2023-04-20T08:18:05.627Z,15.83
2023-04-20T08:23:00.786Z,15.89
2023-04-20T08:25:29.365Z,15.81
2023-04-20T08:27:56.306Z,15.79
2023-04-20T08:30:27.519Z,15.83
2023-04-20T08:32:54.646Z,15.70
2023-04-20T08:35:21.736Z,15.71
2023-04-20T08:37:48.865Z,15.71
2023-04-20T08:40:18.122Z,15.73
2023-04-20T08:42:46.687Z,15.71
2023-04-20T08:45:13.815Z,15.73
2023-04-20T08:47:41.626Z,15.70
2023-04-20T08:50:09.607Z,15.71
2023-04-20T08:52:36.715Z,15.73
2023-04-20T08:55:04.166Z,15.73
2023-04-20T08:57:31.110Z,15.77
2023-04-20T09:00:07.066Z,15.86
2023-04-20T09:02:34.282Z,15.96
2023-04-20T09:05:02.506Z,16.14
2023-04-20T09:07:30.141Z,16.26
2023-04-20T09:09:58.542Z,16.41
2023-04-20T09:12:26.498Z,16.59
2023-04-20T09:14:54.303Z,16.77
2023-04-20T09:17:36.026Z,16.97
2023-04-20T09:20:03.944Z,17.00
2023-04-20T09:22:32.218Z,17.03
2023-04-20T09:25:00.043Z,17.03
2023-04-20T09:27:27.567Z,17.00
2023-04-20T09:29:59.252Z,17.06
2023-04-20T09:32:28.206Z,17.06
2023-04-20T09:34:57.175Z,17.12
2023-04-20T09:37:24.901Z,17.04
2023-04-20T09:39:54.776Z,17.09
2023-04-20T09:42:25.871Z,17.09
2023-04-20T09:44:54.123Z,17.14
2023-04-20T09:47:22.908Z,17.23
2023-04-20T09:49:50.793Z,17.19
2023-04-20T09:52:19.670Z,17.16
2023-04-20T09:54:46.875Z,17.13
2023-04-20T09:57:14.711Z,17.12
2023-04-20T09:59:43.872Z,17.16
2023-04-20T10:02:11.878Z,17.24
2023-04-20T10:04:52.374Z,17.44
2023-04-20T10:07:26.480Z,17.57
2023-04-20T10:10:08.157Z,17.65
2023-04-20T10:12:47.874Z,17.70
2023-04-20T10:15:14.774Z,17.73
2023-04-20T10:17:42.566Z,17.77
2023-04-20T10:20:20.033Z,17.82
2023-04-20T10:22:48.875Z,17.88
2023-04-20T10:25:18.049Z,17.95
2023-04-20T10:27:56.708Z,18.06
2023-04-20T10:30:24.928Z,18.02
2023-04-20T10:33:07.023Z,18.09
2023-04-20T10:35:49.523Z,18.15
2023-04-20T10:38:29.195Z,18.30
2023-04-20T10:40:56.401Z,18.32
2023-04-20T10:43:23.389Z,18.40
2023-04-20T10:45:50.826Z,18.37
2023-04-20T10:48:18.523Z,18.43
2023-04-20T10:50:45.578Z,18.35
2023-04-20T10:53:22.099Z,18.42
2023-04-20T10:55:59.252Z,18.40
2023-04-20T10:58:26.354Z,18.40
2023-04-20T11:01:13.954Z,18.42
2023-04-20T11:03:50.399Z,18.39
2023-04-20T11:06:18.092Z,18.19
2023-04-20T11:08:46.494Z,18.18
2023-04-20T11:11:21.525Z,18.24
2023-04-20T11:13:48.703Z,18.21
2023-04-20T11:16:18.317Z,18.24
2023-04-20T11:18:50.633Z,18.26
2023-04-20T11:21:17.828Z,18.24
2023-04-20T11:23:46.527Z,18.33
2023-04-20T11:26:13.763Z,18.40
2023-04-20T11:28:56.232Z,18.47
2023-04-20T11:31:24.047Z,18.42
2023-04-20T11:33:51.401Z,18.46
2023-04-20T11:36:20.332Z,18.53
2023-04-20T11:38:49.533Z,18.46
2023-04-20T11:41:17.269Z,18.46
2023-04-20T11:43:44.716Z,18.45
2023-04-20T11:46:17.752Z,18.59
2023-04-20T11:48:45.632Z,18.73
2023-04-20T11:51:12.596Z,18.88
2023-04-20T11:53:40.036Z,19.06
2023-04-20T11:56:08.585Z,19.28
2023-04-20T11:58:35.791Z,19.47
2023-04-20T12:01:02.769Z,19.59
2023-04-20T12:03:30.138Z,19.69
2023-04-20T12:05:57.262Z,19.94
2023-04-20T12:08:24.329Z,20.10
2023-04-20T12:10:51.213Z,20.29
2023-04-20T12:13:19.642Z,20.40
2023-04-20T12:15:46.624Z,20.63
2023-04-20T12:18:13.712Z,20.74
2023-04-20T12:20:40.904Z,21.03
2023-04-20T12:23:33.138Z,21.41
2023-04-20T12:26:00.293Z,21.57
2023-04-20T12:28:28.592Z,21.77
2023-04-20T12:30:55.646Z,21.74
2023-04-20T12:33:22.973Z,21.84
2023-04-20T12:35:50.049Z,21.96
2023-04-20T12:38:17.812Z,22.03
2023-04-20T12:40:44.849Z,22.21
2023-04-20T12:43:12.217Z,22.41
2023-04-20T12:45:40.774Z,22.61
2023-04-20T12:48:08.000Z,22.82
2023-04-20T12:50:35.592Z,23.06
2023-04-20T12:53:03.077Z,23.40
2023-04-20T12:55:30.231Z,23.43
2023-04-20T12:57:57.402Z,23.53
2023-04-20T13:00:24.776Z,23.56
2023-04-20T13:02:53.662Z,23.81
2023-04-20T13:05:21.201Z,23.82
2023-04-20T13:07:48.235Z,23.60
2023-04-20T13:10:15.198Z,23.46
2023-04-20T13:12:42.465Z,23.37
2023-04-20T13:15:10.548Z,23.28
2023-04-20T13:17:37.506Z,23.17
2023-04-20T13:20:07.720Z,23.13
2023-04-20T13:22:38.930Z,23.00
2023-04-20T13:25:11.247Z,22.95
2023-04-20T13:27:38.534Z,22.88
2023-04-20T13:30:07.575Z,23.06
2023-04-20T13:32:35.902Z,23.58
2023-04-20T13:35:07.628Z,24.36
2023-04-20T13:37:34.892Z,25.03
2023-04-20T13:40:02.835Z,25.47
2023-04-20T13:42:29.957Z,25.85
2023-04-20T13:44:57.183Z,26.09
2023-04-20T13:47:24.519Z,26.33
2023-04-20T13:49:51.687Z,26.44
2023-04-20T13:52:20.308Z,26.49
2023-04-20T13:54:47.953Z,26.32
2023-04-20T13:57:21.262Z,25.99
2023-04-20T13:59:49.027Z,25.85
2023-04-20T14:02:16.167Z,25.93
2023-04-20T14:04:43.461Z,26.22
2023-04-20T14:07:11.110Z,26.26
2023-04-20T14:09:39.581Z,26.16
2023-04-20T14:12:07.171Z,26.03
2023-04-20T14:14:34.621Z,26.25
2023-04-20T14:17:02.229Z,26.57
2023-04-20T14:19:29.674Z,26.95
2023-04-20T14:21:57.104Z,27.37
2023-04-20T14:24:26.918Z,27.73
2023-04-20T14:26:55.666Z,28.03
2023-04-20T14:29:22.810Z,28.10
2023-04-20T14:31:50.912Z,28.21
2023-04-20T14:34:18.332Z,28.36
2023-04-20T14:36:45.998Z,28.67
2023-04-20T14:39:12.954Z,28.90
2023-04-20T14:41:39.910Z,29.05
2023-04-20T14:44:08.747Z,29.14
2023-04-20T14:46:36.059Z,29.16
2023-04-20T14:49:03.307Z,29.16
2023-04-20T14:51:30.387Z,28.92
2023-04-20T14:53:57.406Z,28.61
2023-04-20T14:56:24.790Z,28.10
2023-04-20T14:58:51.768Z,27.81
2023-04-20T15:01:20.559Z,27.65
2023-04-20T15:03:47.923Z,27.59
2023-04-20T15:06:15.214Z,27.56
2023-04-20T15:08:42.287Z,27.55
2023-04-20T15:11:09.340Z,27.61
2023-04-20T15:13:36.198Z,27.56
2023-04-20T15:16:05.300Z,27.52
2023-04-20T15:21:25.781Z,26.92
2023-04-20T15:23:52.687Z,26.54
2023-04-20T15:26:20.134Z,26.19
2023-04-20T15:28:47.280Z,25.77
2023-04-20T15:31:17.329Z,25.27
2023-04-20T15:33:46.027Z,24.90
2023-04-20T15:36:13.178Z,24.53
2023-04-20T15:38:40.693Z,24.26
2023-04-20T15:41:08.110Z,24.04
2023-04-20T15:43:35.328Z,23.82
2023-04-20T15:46:02.694Z,23.74
2023-04-20T15:48:29.590Z,23.61
2023-04-20T15:50:58.341Z,23.49
2023-04-20T15:53:25.343Z,23.26
2023-04-20T15:55:52.284Z,23.13
2023-04-20T15:58:19.386Z,22.93
2023-04-20T16:00:46.516Z,22.81
2023-04-20T16:03:13.949Z,22.55
2023-04-20T16:05:41.246Z,22.40
2023-04-20T16:08:09.776Z,22.30
2023-04-20T16:10:36.897Z,22.30
2023-04-20T16:13:03.816Z,22.33
2023-04-20T16:15:31.084Z,22.28
2023-04-20T16:17:58.262Z,22.21
2023-04-20T16:20:25.669Z,22.07
2023-04-20T16:22:52.992Z,21.86
2023-04-20T16:25:21.450Z,21.86
2023-04-20T16:27:49.018Z,21.90
2023-04-20T16:30:16.229Z,22.00
2023-04-20T16:32:43.564Z,22.20
2023-04-20T16:35:11.203Z,22.35
2023-04-20T16:37:38.263Z,22.35
2023-04-20T16:40:07.286Z,22.40
2023-04-20T16:42:35.908Z,22.41
2023-04-20T16:45:03.419Z,22.38
2023-04-20T16:47:30.462Z,22.35
2023-04-20T16:49:58.543Z,22.34
2023-04-20T16:52:28.350Z,22.37
2023-04-20T16:54:55.335Z,22.37
2023-04-20T16:57:23.346Z,22.37
2023-04-20T16:59:52.613Z,22.27
2023-04-20T17:02:19.815Z,22.13
2023-04-20T17:05:13.247Z,21.83
2023-04-20T17:07:40.398Z,21.74
2023-04-20T17:10:08.450Z,21.67
2023-04-20T17:12:35.920Z,21.52
2023-04-20T17:15:05.856Z,21.31
2023-04-20T17:17:36.892Z,21.15
2023-04-20T17:20:05.350Z,21.01
2023-04-20T17:22:35.892Z,20.90
2023-04-20T17:25:07.547Z,20.80
2023-04-20T17:27:36.210Z,20.65
2023-04-20T17:30:06.966Z,20.58
2023-04-20T17:32:34.233Z,20.45
2023-04-20T17:35:01.456Z,20.37
2023-04-20T17:37:28.510Z,20.30
2023-04-20T17:39:55.626Z,20.26
2023-04-20T17:42:22.860Z,20.17
2023-04-20T17:44:50.996Z,20.13
2023-04-20T17:47:19.649Z,20.06
2023-04-20T17:49:50.182Z,19.90
2023-04-20T17:52:17.532Z,19.79
2023-04-20T17:54:45.085Z,19.69
2023-04-20T17:57:12.191Z,19.61
2023-04-20T17:59:39.629Z,19.51
2023-04-20T18:02:07.594Z,19.41
2023-04-20T18:21:52.802Z,18.61
2023-04-20T18:24:20.429Z,18.63
2023-04-20T18:26:50.420Z,18.64
2023-04-20T18:29:17.589Z,18.52
2023-04-20T18:31:45.078Z,18.46
2023-04-20T18:34:12.785Z,18.42
2023-04-20T18:36:39.826Z,18.35
2023-04-20T18:39:08.428Z,18.30
2023-04-20T18:41:36.407Z,18.19
2023-04-20T18:44:03.850Z,18.16
2023-04-20T18:46:32.439Z,18.06
2023-04-20T18:48:59.469Z,17.98
2023-04-20T18:51:26.904Z,17.96
2023-04-20T18:53:57.198Z,17.94
2023-04-20T18:56:26.004Z,17.85
2023-04-20T18:58:53.220Z,17.82
2023-04-20T19:01:20.251Z,17.79
2023-04-20T19:03:48.144Z,17.82
2023-04-20T19:06:15.852Z,17.79
2023-04-20T19:08:43.145Z,17.78
2023-04-20T19:11:10.160Z,17.77
2023-04-20T19:13:39.193Z,17.74
2023-04-20T19:16:06.456Z,17.70
2023-04-20T19:18:35.851Z,17.73
2023-04-20T19:21:03.653Z,17.68
2023-04-20T19:23:30.887Z,17.67
2023-04-20T19:25:57.868Z,17.65
2023-04-20T19:28:25.049Z,17.67
2023-04-20T19:30:56.611Z,17.68
2023-04-20T19:33:23.725Z,17.61
2023-04-20T19:35:51.053Z,17.58
2023-04-20T19:38:18.930Z,17.51
2023-04-20T19:40:46.686Z,17.44
2023-04-20T19:43:14.628Z,17.41
2023-04-20T19:45:42.466Z,17.37
2023-04-20T19:48:11.120Z,17.37
2023-04-20T19:50:38.448Z,17.38
2023-04-20T19:53:13.899Z,17.44
2023-04-20T19:55:41.492Z,17.37
2023-04-20T19:58:08.766Z,17.36
2023-04-20T20:00:35.923Z,17.30
2023-04-20T20:05:47.830Z,17.30
2023-04-20T20:08:14.988Z,17.28
2023-04-20T20:10:42.492Z,17.23
2023-04-20T20:13:16.234Z,17.19
2023-04-20T20:15:43.580Z,17.10
2023-04-20T20:18:11.369Z,17.09
2023-04-20T20:20:38.524Z,17.07
2023-04-20T20:23:33.230Z,17.04
2023-04-20T20:26:03.610Z,17.10
2023-04-20T20:28:30.931Z,17.12
2023-04-20T20:30:57.972Z,17.10
2023-04-20T20:33:26.871Z,17.14
2023-04-20T20:35:54.218Z,17.14
2023-04-20T20:38:21.458Z,17.13
2023-04-20T20:40:52.248Z,17.16
2023-04-20T20:43:22.705Z,17.13
2023-04-20T20:45:50.203Z,17.04
2023-04-20T20:48:17.068Z,17.02
2023-04-20T20:50:44.376Z,16.99
2023-04-20T20:53:11.988Z,16.96
2023-04-20T20:55:38.868Z,16.94
2023-04-20T20:58:07.573Z,16.89
2023-04-20T21:00:35.005Z,16.86
2023-04-20T21:03:02.760Z,16.83
2023-04-20T21:05:30.049Z,16.83
2023-04-20T21:08:07.164Z,16.76
2023-04-20T21:10:34.833Z,16.72
2023-04-20T21:13:02.012Z,16.71
2023-04-20T21:15:30.392Z,16.72
2023-04-20T21:17:57.388Z,16.76
2023-04-20T21:20:24.582Z,16.72
2023-04-20T21:22:51.602Z,16.71
2023-04-20T21:25:18.489Z,16.69
2023-04-20T21:27:46.136Z,16.65
2023-04-20T21:30:14.318Z,16.66
2023-04-20T21:32:42.780Z,16.61
2023-04-20T21:35:10.155Z,16.58
2023-04-20T21:37:37.613Z,16.55
2023-04-20T21:40:08.326Z,16.52
2023-04-20T21:42:35.870Z,16.48
2023-04-20T21:45:03.136Z,16.51
2023-04-20T21:47:31.289Z,16.51
2023-04-20T21:50:00.254Z,16.49
2023-04-20T21:52:27.117Z,16.53
2023-04-20T21:54:54.197Z,16.51
2023-04-20T21:57:21.803Z,16.51
2023-04-20T21:59:49.197Z,16.51
2023-04-20T22:02:16.530Z,16.49
2023-04-20T22:04:43.892Z,16.53
2023-04-20T22:07:12.946Z,16.53
2023-04-20T22:09:40.933Z,16.51
2023-04-20T22:12:08.010Z,16.53
2023-04-20T22:14:36.150Z,16.49
2023-04-20T22:17:03.190Z,16.44
2023-04-20T22:19:30.618Z,16.40
2023-04-20T22:21:57.756Z,16.44
2023-04-20T22:24:27.429Z,16.38
2023-04-20T22:26:54.529Z,16.34
2023-04-20T22:29:21.984Z,16.34
2023-04-20T22:31:49.322Z,16.32
2023-04-20T22:34:19.527Z,16.28
2023-04-20T22:36:46.611Z,16.28
2023-04-20T22:39:13.598Z,16.24
2023-04-20T22:41:42.396Z,16.24
2023-04-20T22:44:09.736Z,16.20
2023-04-20T22:46:38.254Z,16.18
2023-04-20T22:49:05.552Z,16.20
2023-04-20T22:51:32.659Z,16.17
2023-04-20T22:53:59.729Z,16.14
2023-04-20T22:56:26.838Z,16.12
2023-04-20T22:58:55.490Z,16.10
2023-04-20T23:01:23.155Z,16.10
2023-04-20T23:03:53.316Z,16.11
2023-04-20T23:06:20.721Z,16.11
2023-04-20T23:08:48.137Z,16.12
2023-04-20T23:11:15.581Z,16.07
2023-04-20T23:13:42.816Z,16.08
2023-04-20T23:16:11.020Z,16.08
2023-04-20T23:18:38.473Z,16.05
2023-04-20T23:21:06.133Z,16.08
2023-04-20T23:23:33.553Z,15.97
2023-04-20T23:26:08.634Z,16.01
2023-04-20T23:28:35.820Z,15.94
2023-04-20T23:31:02.879Z,16.01
2023-04-20T23:33:32.037Z,15.98
2023-04-20T23:35:59.470Z,15.93
2023-04-20T23:38:26.945Z,15.96
2023-04-20T23:40:53.850Z,15.89
2023-04-20T23:43:20.945Z,15.89
2023-04-20T23:45:49.286Z,15.86
2023-04-20T23:48:16.213Z,15.86
2023-04-20T23:50:44.793Z,15.89
2023-04-20T23:53:11.654Z,15.89
2023-04-20T23:55:39.242Z,15.84
2023-04-20T23:58:06.398Z,15.83
